sensor_id;sensor_type;location;lat;lon;timestamp;P1;durP1;ratioP1;P2;durP2;ratioP2
6642;SDS011;3357;48.050;7.800;2023-05-07T00:01:11;1.93;;;1.83;;
6642;SDS011;3357;48.050;7.800;2023-05-07T00:03:36;6.43;;;2.10;;
6642;SDS011;3357;48.050;7.800;2023-05-07T00:06:02;2.23;;;2.00;;
6642;SDS011;3357;48.050;7.800;2023-05-07T00:08:28;2.93;;;2.30;;
6642;SDS011;3357;48.050;7.800;2023-05-07T00:10:53;5.97;;;2.17;;
6642;SDS011;3357;48.050;7.800;2023-05-07T00:13:19;5.20;;;1.87;;
6642;SDS011;3357;48.050;7.800;2023-05-07T00:15:44;3.83;;;1.70;;
6642;SDS011;3357;48.050;7.800;2023-05-07T00:18:09;1.33;;;1.30;;
6642;SDS011;3357;48.050;7.800;2023-05-07T00:20:35;1.60;;;1.50;;
6642;SDS011;3357;48.050;7.800;2023-05-07T00:23:00;4.27;;;1.70;;
6642;SDS011;3357;48.050;7.800;2023-05-07T00:25:25;2.17;;;2.00;;
6642;SDS011;3357;48.050;7.800;2023-05-07T00:27:50;2.23;;;2.03;;
6642;SDS011;3357;48.050;7.800;2023-05-07T00:30:16;2.10;;;1.90;;
6642;SDS011;3357;48.050;7.800;2023-05-07T00:32:41;1.97;;;1.87;;
6642;SDS011;3357;48.050;7.800;2023-05-07T00:35:07;2.67;;;1.60;;
6642;SDS011;3357;48.050;7.800;2023-05-07T00:37:32;5.20;;;1.93;;
6642;SDS011;3357;48.050;7.800;2023-05-07T00:39:58;1.77;;;1.67;;
6642;SDS011;3357;48.050;7.800;2023-05-07T00:42:23;2.17;;;1.80;;
6642;SDS011;3357;48.050;7.800;2023-05-07T00:44:49;1.83;;;1.73;;
6642;SDS011;3357;48.050;7.800;2023-05-07T00:47:14;2.63;;;2.23;;
6642;SDS011;3357;48.050;7.800;2023-05-07T00:49:43;2.20;;;2.00;;
6642;SDS011;3357;48.050;7.800;2023-05-07T00:52:09;5.63;;;2.30;;
6642;SDS011;3357;48.050;7.800;2023-05-07T00:54:36;2.87;;;1.70;;
6642;SDS011;3357;48.050;7.800;2023-05-07T00:57:02;10.80;;;2.17;;
6642;SDS011;3357;48.050;7.800;2023-05-07T00:59:28;4.43;;;2.33;;
6642;SDS011;3357;48.050;7.800;2023-05-07T01:01:54;7.47;;;2.00;;
6642;SDS011;3357;48.050;7.800;2023-05-07T01:04:19;7.20;;;2.63;;
6642;SDS011;3357;48.050;7.800;2023-05-07T01:06:44;3.53;;;2.33;;
6642;SDS011;3357;48.050;7.800;2023-05-07T01:09:10;13.77;;;3.17;;
6642;SDS011;3357;48.050;7.800;2023-05-07T01:11:35;2.80;;;2.60;;
6642;SDS011;3357;48.050;7.800;2023-05-07T01:14:00;5.17;;;2.67;;
6642;SDS011;3357;48.050;7.800;2023-05-07T01:16:26;3.53;;;2.03;;
6642;SDS011;3357;48.050;7.800;2023-05-07T01:18:52;4.13;;;2.63;;
6642;SDS011;3357;48.050;7.800;2023-05-07T01:21:17;2.30;;;2.10;;
6642;SDS011;3357;48.050;7.800;2023-05-07T01:23:43;3.10;;;2.20;;
6642;SDS011;3357;48.050;7.800;2023-05-07T01:26:10;2.30;;;1.97;;
6642;SDS011;3357;48.050;7.800;2023-05-07T01:28:35;5.43;;;2.33;;
6642;SDS011;3357;48.050;7.800;2023-05-07T01:31:01;2.60;;;2.40;;
6642;SDS011;3357;48.050;7.800;2023-05-07T01:33:28;1.90;;;1.80;;
6642;SDS011;3357;48.050;7.800;2023-05-07T01:35:56;2.03;;;1.93;;
6642;SDS011;3357;48.050;7.800;2023-05-07T01:38:23;4.77;;;2.27;;
6642;SDS011;3357;48.050;7.800;2023-05-07T01:40:48;3.20;;;2.77;;
6642;SDS011;3357;48.050;7.800;2023-05-07T01:43:14;6.60;;;2.17;;
6642;SDS011;3357;48.050;7.800;2023-05-07T01:45:39;4.90;;;2.10;;
6642;SDS011;3357;48.050;7.800;2023-05-07T01:48:05;2.40;;;2.07;;
6642;SDS011;3357;48.050;7.800;2023-05-07T01:50:31;2.10;;;2.00;;
6642;SDS011;3357;48.050;7.800;2023-05-07T01:52:57;1.97;;;1.87;;
6642;SDS011;3357;48.050;7.800;2023-05-07T01:55:22;2.43;;;2.10;;
6642;SDS011;3357;48.050;7.800;2023-05-07T01:57:48;2.60;;;2.40;;
6642;SDS011;3357;48.050;7.800;2023-05-07T02:00:14;3.23;;;2.37;;
6642;SDS011;3357;48.050;7.800;2023-05-07T02:02:39;1.80;;;1.70;;
6642;SDS011;3357;48.050;7.800;2023-05-07T02:05:04;5.37;;;2.50;;
6642;SDS011;3357;48.050;7.800;2023-05-07T02:07:30;4.50;;;2.60;;
6642;SDS011;3357;48.050;7.800;2023-05-07T02:09:55;8.60;;;3.23;;
6642;SDS011;3357;48.050;7.800;2023-05-07T02:12:21;2.23;;;1.67;;
6642;SDS011;3357;48.050;7.800;2023-05-07T02:14:46;3.67;;;1.90;;
6642;SDS011;3357;48.050;7.800;2023-05-07T02:17:12;3.53;;;2.07;;
6642;SDS011;3357;48.050;7.800;2023-05-07T02:19:37;4.33;;;2.57;;
6642;SDS011;3357;48.050;7.800;2023-05-07T02:22:02;2.53;;;2.33;;
6642;SDS011;3357;48.050;7.800;2023-05-07T02:24:27;2.10;;;1.83;;
6642;SDS011;3357;48.050;7.800;2023-05-07T02:26:53;2.80;;;1.80;;
6642;SDS011;3357;48.050;7.800;2023-05-07T02:29:18;2.87;;;2.00;;
6642;SDS011;3357;48.050;7.800;2023-05-07T02:31:43;2.30;;;2.20;;
6642;SDS011;3357;48.050;7.800;2023-05-07T02:34:09;2.53;;;1.90;;
6642;SDS011;3357;48.050;7.800;2023-05-07T02:36:34;2.00;;;1.90;;
6642;SDS011;3357;48.050;7.800;2023-05-07T02:39:00;5.23;;;1.80;;
6642;SDS011;3357;48.050;7.800;2023-05-07T02:41:25;2.27;;;2.10;;
6642;SDS011;3357;48.050;7.800;2023-05-07T02:43:50;1.90;;;1.80;;
6642;SDS011;3357;48.050;7.800;2023-05-07T02:46:16;3.03;;;1.83;;
6642;SDS011;3357;48.050;7.800;2023-05-07T02:48:41;3.33;;;2.10;;
6642;SDS011;3357;48.050;7.800;2023-05-07T02:51:06;2.70;;;2.50;;
6642;SDS011;3357;48.050;7.800;2023-05-07T02:53:31;3.93;;;1.90;;
6642;SDS011;3357;48.050;7.800;2023-05-07T02:55:57;5.67;;;2.10;;
6642;SDS011;3357;48.050;7.800;2023-05-07T02:58:24;2.93;;;2.23;;
6642;SDS011;3357;48.050;7.800;2023-05-07T03:00:50;2.30;;;2.10;;
6642;SDS011;3357;48.050;7.800;2023-05-07T03:03:16;2.40;;;1.70;;
6642;SDS011;3357;48.050;7.800;2023-05-07T03:05:41;3.77;;;2.30;;
6642;SDS011;3357;48.050;7.800;2023-05-07T03:08:07;1.80;;;1.70;;
6642;SDS011;3357;48.050;7.800;2023-05-07T03:10:33;2.63;;;1.43;;
6642;SDS011;3357;48.050;7.800;2023-05-07T03:12:58;2.37;;;1.70;;
6642;SDS011;3357;48.050;7.800;2023-05-07T03:15:23;3.93;;;1.97;;
6642;SDS011;3357;48.050;7.800;2023-05-07T03:17:49;2.93;;;1.27;;
6642;SDS011;3357;48.050;7.800;2023-05-07T03:20:14;2.00;;;1.90;;
6642;SDS011;3357;48.050;7.800;2023-05-07T03:22:39;3.00;;;1.63;;
6642;SDS011;3357;48.050;7.800;2023-05-07T03:25:05;1.97;;;1.87;;
6642;SDS011;3357;48.050;7.800;2023-05-07T03:27:31;2.43;;;2.23;;
6642;SDS011;3357;48.050;7.800;2023-05-07T03:29:56;6.17;;;2.53;;
6642;SDS011;3357;48.050;7.800;2023-05-07T03:32:22;2.63;;;2.10;;
6642;SDS011;3357;48.050;7.800;2023-05-07T03:34:47;6.10;;;2.40;;
6642;SDS011;3357;48.050;7.800;2023-05-07T03:37:12;2.10;;;2.00;;
6642;SDS011;3357;48.050;7.800;2023-05-07T03:39:37;2.03;;;1.93;;
6642;SDS011;3357;48.050;7.800;2023-05-07T03:42:03;2.50;;;2.30;;
6642;SDS011;3357;48.050;7.800;2023-05-07T03:44:28;3.23;;;1.60;;
6642;SDS011;3357;48.050;7.800;2023-05-07T03:46:53;3.07;;;1.90;;
6642;SDS011;3357;48.050;7.800;2023-05-07T03:49:19;3.20;;;2.90;;
6642;SDS011;3357;48.050;7.800;2023-05-07T03:51:44;4.10;;;2.37;;
6642;SDS011;3357;48.050;7.800;2023-05-07T03:54:09;3.67;;;1.70;;
6642;SDS011;3357;48.050;7.800;2023-05-07T03:56:34;2.90;;;2.20;;
6642;SDS011;3357;48.050;7.800;2023-05-07T03:59:00;2.60;;;2.50;;
6642;SDS011;3357;48.050;7.800;2023-05-07T04:01:26;2.37;;;2.27;;
6642;SDS011;3357;48.050;7.800;2023-05-07T04:03:51;2.10;;;2.00;;
6642;SDS011;3357;48.050;7.800;2023-05-07T04:06:16;3.07;;;2.47;;
6642;SDS011;3357;48.050;7.800;2023-05-07T04:08:42;2.27;;;2.07;;
6642;SDS011;3357;48.050;7.800;2023-05-07T04:11:08;2.47;;;1.83;;
6642;SDS011;3357;48.050;7.800;2023-05-07T04:13:33;2.93;;;1.67;;
6642;SDS011;3357;48.050;7.800;2023-05-07T04:15:58;2.07;;;1.87;;
6642;SDS011;3357;48.050;7.800;2023-05-07T04:18:24;2.03;;;1.93;;
6642;SDS011;3357;48.050;7.800;2023-05-07T04:20:49;7.57;;;1.63;;
6642;SDS011;3357;48.050;7.800;2023-05-07T04:23:14;1.60;;;1.50;;
6642;SDS011;3357;48.050;7.800;2023-05-07T04:25:40;1.60;;;1.50;;
6642;SDS011;3357;48.050;7.800;2023-05-07T04:28:05;1.60;;;1.50;;
6642;SDS011;3357;48.050;7.800;2023-05-07T04:30:30;2.30;;;1.77;;
6642;SDS011;3357;48.050;7.800;2023-05-07T04:32:56;3.20;;;2.00;;
6642;SDS011;3357;48.050;7.800;2023-05-07T04:35:21;2.43;;;1.80;;
6642;SDS011;3357;48.050;7.800;2023-05-07T04:37:47;1.67;;;1.57;;
6642;SDS011;3357;48.050;7.800;2023-05-07T04:40:12;1.60;;;1.50;;
6642;SDS011;3357;48.050;7.800;2023-05-07T04:42:38;2.03;;;1.90;;
6642;SDS011;3357;48.050;7.800;2023-05-07T04:45:03;1.67;;;1.57;;
6642;SDS011;3357;48.050;7.800;2023-05-07T04:47:30;4.17;;;1.63;;
6642;SDS011;3357;48.050;7.800;2023-05-07T04:49:55;2.80;;;1.60;;
6642;SDS011;3357;48.050;7.800;2023-05-07T04:52:20;3.00;;;2.00;;
6642;SDS011;3357;48.050;7.800;2023-05-07T04:54:45;4.80;;;1.87;;
6642;SDS011;3357;48.050;7.800;2023-05-07T04:57:11;1.70;;;1.60;;
6642;SDS011;3357;48.050;7.800;2023-05-07T04:59:36;1.87;;;1.77;;
6642;SDS011;3357;48.050;7.800;2023-05-07T05:02:02;1.87;;;1.77;;
6642;SDS011;3357;48.050;7.800;2023-05-07T05:04:29;1.80;;;1.70;;
6642;SDS011;3357;48.050;7.800;2023-05-07T05:06:54;4.27;;;2.30;;
6642;SDS011;3357;48.050;7.800;2023-05-07T05:09:19;5.40;;;2.20;;
6642;SDS011;3357;48.050;7.800;2023-05-07T05:11:45;2.17;;;2.07;;
6642;SDS011;3357;48.050;7.800;2023-05-07T05:14:10;4.60;;;2.10;;
6642;SDS011;3357;48.050;7.800;2023-05-07T05:16:35;2.53;;;2.33;;
6642;SDS011;3357;48.050;7.800;2023-05-07T05:19:01;2.20;;;2.00;;
6642;SDS011;3357;48.050;7.800;2023-05-07T05:21:26;2.30;;;2.10;;
6642;SDS011;3357;48.050;7.800;2023-05-07T05:23:52;4.13;;;2.40;;
6642;SDS011;3357;48.050;7.800;2023-05-07T05:26:17;4.80;;;2.17;;
6642;SDS011;3357;48.050;7.800;2023-05-07T05:28:42;2.67;;;2.57;;
6642;SDS011;3357;48.050;7.800;2023-05-07T05:31:07;2.20;;;2.10;;
6642;SDS011;3357;48.050;7.800;2023-05-07T05:33:33;2.60;;;2.37;;
6642;SDS011;3357;48.050;7.800;2023-05-07T05:35:58;2.37;;;2.07;;
6642;SDS011;3357;48.050;7.800;2023-05-07T05:38:23;2.80;;;2.60;;
6642;SDS011;3357;48.050;7.800;2023-05-07T05:40:48;5.57;;;3.40;;
6642;SDS011;3357;48.050;7.800;2023-05-07T05:43:14;2.67;;;2.50;;
6642;SDS011;3357;48.050;7.800;2023-05-07T05:45:39;7.77;;;3.60;;
6642;SDS011;3357;48.050;7.800;2023-05-07T05:48:05;7.13;;;2.63;;
6642;SDS011;3357;48.050;7.800;2023-05-07T05:50:30;4.07;;;3.10;;
6642;SDS011;3357;48.050;7.800;2023-05-07T05:52:56;8.23;;;2.90;;
6642;SDS011;3357;48.050;7.800;2023-05-07T05:55:22;3.20;;;2.97;;
6642;SDS011;3357;48.050;7.800;2023-05-07T05:57:47;4.97;;;2.80;;
6642;SDS011;3357;48.050;7.800;2023-05-07T06:00:13;3.40;;;3.10;;
6642;SDS011;3357;48.050;7.800;2023-05-07T06:02:38;4.57;;;2.80;;
6642;SDS011;3357;48.050;7.800;2023-05-07T06:05:04;3.77;;;3.37;;
6642;SDS011;3357;48.050;7.800;2023-05-07T06:07:29;3.23;;;2.93;;
6642;SDS011;3357;48.050;7.800;2023-05-07T06:09:55;3.07;;;2.77;;
6642;SDS011;3357;48.050;7.800;2023-05-07T06:12:20;5.53;;;2.73;;
6642;SDS011;3357;48.050;7.800;2023-05-07T06:14:46;3.13;;;2.57;;
6642;SDS011;3357;48.050;7.800;2023-05-07T06:17:11;3.07;;;2.83;;
6642;SDS011;3357;48.050;7.800;2023-05-07T06:19:36;3.53;;;3.23;;
6642;SDS011;3357;48.050;7.800;2023-05-07T06:22:01;3.70;;;3.10;;
6642;SDS011;3357;48.050;7.800;2023-05-07T06:24:27;3.20;;;3.00;;
6642;SDS011;3357;48.050;7.800;2023-05-07T06:26:53;8.20;;;4.73;;
6642;SDS011;3357;48.050;7.800;2023-05-07T06:29:18;4.93;;;4.47;;
6642;SDS011;3357;48.050;7.800;2023-05-07T06:31:43;5.37;;;4.87;;
6642;SDS011;3357;48.050;7.800;2023-05-07T06:34:08;5.17;;;4.63;;
6642;SDS011;3357;48.050;7.800;2023-05-07T06:36:34;5.87;;;4.80;;
6642;SDS011;3357;48.050;7.800;2023-05-07T06:39:00;6.60;;;4.93;;
6642;SDS011;3357;48.050;7.800;2023-05-07T06:41:25;9.17;;;4.93;;
6642;SDS011;3357;48.050;7.800;2023-05-07T06:43:50;9.00;;;4.90;;
6642;SDS011;3357;48.050;7.800;2023-05-07T06:46:16;5.00;;;4.57;;
6642;SDS011;3357;48.050;7.800;2023-05-07T06:48:41;5.13;;;4.47;;
6642;SDS011;3357;48.050;7.800;2023-05-07T06:51:06;6.40;;;5.33;;
6642;SDS011;3357;48.050;7.800;2023-05-07T06:53:32;8.30;;;5.17;;
6642;SDS011;3357;48.050;7.800;2023-05-07T06:55:57;5.20;;;4.80;;
6642;SDS011;3357;48.050;7.800;2023-05-07T06:58:22;6.30;;;5.27;;
6642;SDS011;3357;48.050;7.800;2023-05-07T07:00:48;8.47;;;4.70;;
6642;SDS011;3357;48.050;7.800;2023-05-07T07:03:13;5.17;;;4.67;;
6642;SDS011;3357;48.050;7.800;2023-05-07T07:05:42;11.57;;;5.10;;
6642;SDS011;3357;48.050;7.800;2023-05-07T07:08:08;8.30;;;4.90;;
6642;SDS011;3357;48.050;7.800;2023-05-07T07:10:34;4.97;;;4.57;;
6642;SDS011;3357;48.050;7.800;2023-05-07T07:12:59;7.17;;;4.40;;
6642;SDS011;3357;48.050;7.800;2023-05-07T07:15:24;5.97;;;5.37;;
6642;SDS011;3357;48.050;7.800;2023-05-07T07:17:50;6.60;;;4.60;;
6642;SDS011;3357;48.050;7.800;2023-05-07T07:20:16;4.17;;;3.80;;
6642;SDS011;3357;48.050;7.800;2023-05-07T07:22:41;3.47;;;3.20;;
6642;SDS011;3357;48.050;7.800;2023-05-07T07:25:07;4.20;;;3.80;;
6642;SDS011;3357;48.050;7.800;2023-05-07T07:27:32;3.90;;;2.83;;
6642;SDS011;3357;48.050;7.800;2023-05-07T07:29:57;3.73;;;3.43;;
6642;SDS011;3357;48.050;7.800;2023-05-07T07:32:23;5.17;;;4.00;;
6642;SDS011;3357;48.050;7.800;2023-05-07T07:34:48;3.93;;;3.43;;
6642;SDS011;3357;48.050;7.800;2023-05-07T07:37:13;4.80;;;3.20;;
6642;SDS011;3357;48.050;7.800;2023-05-07T07:39:39;8.33;;;3.83;;
6642;SDS011;3357;48.050;7.800;2023-05-07T07:42:04;6.20;;;3.70;;
6642;SDS011;3357;48.050;7.800;2023-05-07T07:44:29;4.90;;;3.47;;
6642;SDS011;3357;48.050;7.800;2023-05-07T07:46:56;5.67;;;3.97;;
6642;SDS011;3357;48.050;7.800;2023-05-07T07:49:21;5.97;;;3.50;;
6642;SDS011;3357;48.050;7.800;2023-05-07T07:51:46;4.90;;;3.80;;
6642;SDS011;3357;48.050;7.800;2023-05-07T07:54:12;3.40;;;3.10;;
6642;SDS011;3357;48.050;7.800;2023-05-07T07:56:37;4.80;;;3.60;;
6642;SDS011;3357;48.050;7.800;2023-05-07T07:59:02;9.90;;;4.30;;
6642;SDS011;3357;48.050;7.800;2023-05-07T08:01:29;6.03;;;4.17;;
6642;SDS011;3357;48.050;7.800;2023-05-07T08:03:55;4.77;;;3.20;;
6642;SDS011;3357;48.050;7.800;2023-05-07T08:06:20;3.80;;;3.50;;
6642;SDS011;3357;48.050;7.800;2023-05-07T08:08:45;5.13;;;3.37;;
6642;SDS011;3357;48.050;7.800;2023-05-07T08:11:11;3.77;;;3.30;;
6642;SDS011;3357;48.050;7.800;2023-05-07T08:13:36;7.30;;;4.23;;
6642;SDS011;3357;48.050;7.800;2023-05-07T08:16:02;3.00;;;2.70;;
6642;SDS011;3357;48.050;7.800;2023-05-07T08:18:27;3.13;;;2.93;;
6642;SDS011;3357;48.050;7.800;2023-05-07T08:20:53;3.43;;;3.13;;
6642;SDS011;3357;48.050;7.800;2023-05-07T08:23:19;3.53;;;3.10;;
6642;SDS011;3357;48.050;7.800;2023-05-07T08:25:44;2.90;;;2.60;;
6642;SDS011;3357;48.050;7.800;2023-05-07T08:28:10;4.13;;;3.40;;
6642;SDS011;3357;48.050;7.800;2023-05-07T08:30:35;8.00;;;3.10;;
6642;SDS011;3357;48.050;7.800;2023-05-07T08:33:00;3.20;;;2.90;;
6642;SDS011;3357;48.050;7.800;2023-05-07T08:35:26;2.93;;;2.73;;
6642;SDS011;3357;48.050;7.800;2023-05-07T08:37:52;5.27;;;2.80;;
6642;SDS011;3357;48.050;7.800;2023-05-07T08:40:17;2.23;;;2.03;;
6642;SDS011;3357;48.050;7.800;2023-05-07T08:42:42;3.77;;;3.17;;
6642;SDS011;3357;48.050;7.800;2023-05-07T08:45:09;3.67;;;3.37;;
6642;SDS011;3357;48.050;7.800;2023-05-07T08:47:40;4.27;;;3.20;;
6642;SDS011;3357;48.050;7.800;2023-05-07T08:50:11;3.63;;;3.33;;
6642;SDS011;3357;48.050;7.800;2023-05-07T08:52:37;4.73;;;3.20;;
6642;SDS011;3357;48.050;7.800;2023-05-07T08:55:04;3.10;;;2.87;;
6642;SDS011;3357;48.050;7.800;2023-05-07T08:57:30;6.40;;;3.60;;
6642;SDS011;3357;48.050;7.800;2023-05-07T08:59:56;4.13;;;3.40;;
6642;SDS011;3357;48.050;7.800;2023-05-07T09:02:21;7.43;;;3.77;;
6642;SDS011;3357;48.050;7.800;2023-05-07T09:04:46;6.80;;;3.70;;
6642;SDS011;3357;48.050;7.800;2023-05-07T09:07:11;7.70;;;4.30;;
6642;SDS011;3357;48.050;7.800;2023-05-07T09:09:37;4.83;;;3.53;;
6642;SDS011;3357;48.050;7.800;2023-05-07T09:12:02;3.50;;;3.30;;
6642;SDS011;3357;48.050;7.800;2023-05-07T09:14:28;5.30;;;3.83;;
6642;SDS011;3357;48.050;7.800;2023-05-07T09:16:55;5.33;;;3.30;;
6642;SDS011;3357;48.050;7.800;2023-05-07T09:19:24;5.83;;;3.73;;
6642;SDS011;3357;48.050;7.800;2023-05-07T09:21:50;3.83;;;3.30;;
6642;SDS011;3357;48.050;7.800;2023-05-07T09:24:22;6.23;;;3.73;;
6642;SDS011;3357;48.050;7.800;2023-05-07T09:26:47;3.73;;;2.80;;
6642;SDS011;3357;48.050;7.800;2023-05-07T09:29:12;6.10;;;3.60;;
6642;SDS011;3357;48.050;7.800;2023-05-07T09:31:38;2.70;;;2.50;;
6642;SDS011;3357;48.050;7.800;2023-05-07T09:34:04;4.40;;;2.97;;
6642;SDS011;3357;48.050;7.800;2023-05-07T09:36:31;3.20;;;2.97;;
6642;SDS011;3357;48.050;7.800;2023-05-07T09:38:58;3.23;;;2.93;;
6642;SDS011;3357;48.050;7.800;2023-05-07T09:41:24;4.20;;;3.10;;
6642;SDS011;3357;48.050;7.800;2023-05-07T09:43:53;4.20;;;3.80;;
6642;SDS011;3357;48.050;7.800;2023-05-07T09:46:19;6.17;;;4.20;;
6642;SDS011;3357;48.050;7.800;2023-05-07T09:48:56;5.20;;;3.13;;
6642;SDS011;3357;48.050;7.800;2023-05-07T09:54:08;3.70;;;3.40;;
6642;SDS011;3357;48.050;7.800;2023-05-07T09:56:35;3.70;;;3.10;;
6642;SDS011;3357;48.050;7.800;2023-05-07T09:59:02;2.73;;;2.47;;
6642;SDS011;3357;48.050;7.800;2023-05-07T10:01:28;3.97;;;2.60;;
6642;SDS011;3357;48.050;7.800;2023-05-07T10:03:54;4.87;;;2.73;;
6642;SDS011;3357;48.050;7.800;2023-05-07T10:06:20;3.10;;;2.80;;
6642;SDS011;3357;48.050;7.800;2023-05-07T10:08:46;3.63;;;3.00;;
6642;SDS011;3357;48.050;7.800;2023-05-07T10:11:11;3.47;;;3.00;;
6642;SDS011;3357;48.050;7.800;2023-05-07T10:13:37;5.33;;;2.70;;
6642;SDS011;3357;48.050;7.800;2023-05-07T10:16:03;3.87;;;2.20;;
6642;SDS011;3357;48.050;7.800;2023-05-07T10:18:30;2.70;;;2.07;;
6642;SDS011;3357;48.050;7.800;2023-05-07T10:20:59;3.40;;;1.70;;
6642;SDS011;3357;48.050;7.800;2023-05-07T10:23:27;2.77;;;2.50;;
6642;SDS011;3357;48.050;7.800;2023-05-07T10:25:53;3.60;;;2.53;;
6642;SDS011;3357;48.050;7.800;2023-05-07T10:28:19;6.07;;;2.53;;
6642;SDS011;3357;48.050;7.800;2023-05-07T10:31:08;2.53;;;2.30;;
6642;SDS011;3357;48.050;7.800;2023-05-07T10:33:53;5.90;;;2.40;;
6642;SDS011;3357;48.050;7.800;2023-05-07T10:36:20;2.47;;;2.27;;
6642;SDS011;3357;48.050;7.800;2023-05-07T10:38:46;4.97;;;2.07;;
6642;SDS011;3357;48.050;7.800;2023-05-07T10:41:12;2.50;;;2.33;;
6642;SDS011;3357;48.050;7.800;2023-05-07T10:43:40;2.50;;;2.30;;
6642;SDS011;3357;48.050;7.800;2023-05-07T10:46:19;2.60;;;2.40;;
6642;SDS011;3357;48.050;7.800;2023-05-07T10:51:31;5.43;;;3.07;;
6642;SDS011;3357;48.050;7.800;2023-05-07T10:56:35;3.97;;;3.50;;
6642;SDS011;3357;48.050;7.800;2023-05-07T11:01:59;4.47;;;3.13;;
6642;SDS011;3357;48.050;7.800;2023-05-07T11:04:28;5.97;;;3.00;;
6642;SDS011;3357;48.050;7.800;2023-05-07T11:15:01;7.40;;;3.90;;
6642;SDS011;3357;48.050;7.800;2023-05-07T11:17:28;5.10;;;4.33;;
6642;SDS011;3357;48.050;7.800;2023-05-07T11:19:56;4.50;;;3.27;;
6642;SDS011;3357;48.050;7.800;2023-05-07T11:22:55;6.07;;;3.60;;
6642;SDS011;3357;48.050;7.800;2023-05-07T11:25:17;3.30;;;3.00;;
6642;SDS011;3357;48.050;7.800;2023-05-07T11:27:46;4.43;;;4.00;;
6642;SDS011;3357;48.050;7.800;2023-05-07T11:30:16;4.20;;;3.80;;
6642;SDS011;3357;48.050;7.800;2023-05-07T11:32:43;4.00;;;3.60;;
6642;SDS011;3357;48.050;7.800;2023-05-07T11:35:09;3.53;;;2.83;;
6642;SDS011;3357;48.050;7.800;2023-05-07T11:37:34;3.90;;;3.00;;
6642;SDS011;3357;48.050;7.800;2023-05-07T11:40:03;7.27;;;3.20;;
6642;SDS011;3357;48.050;7.800;2023-05-07T11:44:57;5.60;;;3.50;;
6642;SDS011;3357;48.050;7.800;2023-05-07T11:47:23;3.17;;;2.87;;
6642;SDS011;3357;48.050;7.800;2023-05-07T11:49:49;3.27;;;2.83;;
6642;SDS011;3357;48.050;7.800;2023-05-07T11:52:17;5.37;;;2.97;;
6642;SDS011;3357;48.050;7.800;2023-05-07T11:54:49;4.63;;;2.80;;
6642;SDS011;3357;48.050;7.800;2023-05-07T11:57:15;5.60;;;3.30;;
6642;SDS011;3357;48.050;7.800;2023-05-07T11:59:40;3.63;;;3.00;;
6642;SDS011;3357;48.050;7.800;2023-05-07T12:02:06;3.77;;;2.90;;
6642;SDS011;3357;48.050;7.800;2023-05-07T12:04:32;3.13;;;2.83;;
6642;SDS011;3357;48.050;7.800;2023-05-07T12:06:57;2.80;;;2.53;;
6642;SDS011;3357;48.050;7.800;2023-05-07T12:09:23;5.27;;;3.33;;
6642;SDS011;3357;48.050;7.800;2023-05-07T12:11:48;5.53;;;3.20;;
6642;SDS011;3357;48.050;7.800;2023-05-07T12:14:14;3.00;;;2.80;;
6642;SDS011;3357;48.050;7.800;2023-05-07T12:16:41;6.20;;;3.17;;
6642;SDS011;3357;48.050;7.800;2023-05-07T12:19:06;4.03;;;3.50;;
6642;SDS011;3357;48.050;7.800;2023-05-07T12:21:33;3.43;;;3.03;;
6642;SDS011;3357;48.050;7.800;2023-05-07T12:23:59;2.83;;;2.63;;
6642;SDS011;3357;48.050;7.800;2023-05-07T12:26:25;3.97;;;3.57;;
6642;SDS011;3357;48.050;7.800;2023-05-07T12:28:50;3.20;;;3.00;;
6642;SDS011;3357;48.050;7.800;2023-05-07T12:31:16;7.23;;;3.33;;
6642;SDS011;3357;48.050;7.800;2023-05-07T12:33:41;10.33;;;3.43;;
6642;SDS011;3357;48.050;7.800;2023-05-07T12:36:07;3.23;;;2.50;;
6642;SDS011;3357;48.050;7.800;2023-05-07T12:38:39;3.77;;;2.53;;
6642;SDS011;3357;48.050;7.800;2023-05-07T12:41:06;5.60;;;2.80;;
6642;SDS011;3357;48.050;7.800;2023-05-07T12:43:32;5.63;;;2.60;;
6642;SDS011;3357;48.050;7.800;2023-05-07T12:46:03;2.40;;;2.20;;
6642;SDS011;3357;48.050;7.800;2023-05-07T12:48:30;3.00;;;2.43;;
6642;SDS011;3357;48.050;7.800;2023-05-07T12:50:56;2.90;;;2.57;;
6642;SDS011;3357;48.050;7.800;2023-05-07T12:53:23;2.67;;;2.43;;
6642;SDS011;3357;48.050;7.800;2023-05-07T12:55:54;3.37;;;2.13;;
6642;SDS011;3357;48.050;7.800;2023-05-07T12:58:27;3.10;;;2.60;;
6642;SDS011;3357;48.050;7.800;2023-05-07T13:00:53;6.00;;;2.70;;
6642;SDS011;3357;48.050;7.800;2023-05-07T13:03:29;2.57;;;2.30;;
6642;SDS011;3357;48.050;7.800;2023-05-07T13:05:57;2.97;;;2.73;;
6642;SDS011;3357;48.050;7.800;2023-05-07T13:08:34;3.77;;;2.27;;
6642;SDS011;3357;48.050;7.800;2023-05-07T13:11:02;3.23;;;2.73;;
6642;SDS011;3357;48.050;7.800;2023-05-07T13:13:32;3.43;;;2.10;;
6642;SDS011;3357;48.050;7.800;2023-05-07T13:15:58;7.07;;;2.10;;
6642;SDS011;3357;48.050;7.800;2023-05-07T13:18:24;3.23;;;2.27;;
6642;SDS011;3357;48.050;7.800;2023-05-07T13:20:50;2.17;;;2.07;;
6642;SDS011;3357;48.050;7.800;2023-05-07T13:23:16;10.70;;;2.23;;
6642;SDS011;3357;48.050;7.800;2023-05-07T13:25:41;3.27;;;2.97;;
6642;SDS011;3357;48.050;7.800;2023-05-07T13:28:07;3.43;;;2.40;;
6642;SDS011;3357;48.050;7.800;2023-05-07T13:30:32;4.73;;;3.20;;
6642;SDS011;3357;48.050;7.800;2023-05-07T13:32:57;8.70;;;3.63;;
6642;SDS011;3357;48.050;7.800;2023-05-07T13:35:23;3.70;;;3.40;;
6642;SDS011;3357;48.050;7.800;2023-05-07T13:37:48;7.70;;;3.50;;
6642;SDS011;3357;48.050;7.800;2023-05-07T13:40:14;5.53;;;3.40;;
6642;SDS011;3357;48.050;7.800;2023-05-07T13:42:40;3.17;;;2.93;;
6642;SDS011;3357;48.050;7.800;2023-05-07T13:45:05;2.43;;;2.33;;
6642;SDS011;3357;48.050;7.800;2023-05-07T13:47:31;2.93;;;2.60;;
6642;SDS011;3357;48.050;7.800;2023-05-07T13:49:56;5.70;;;2.73;;
6642;SDS011;3357;48.050;7.800;2023-05-07T13:52:21;5.00;;;2.67;;
6642;SDS011;3357;48.050;7.800;2023-05-07T13:54:46;2.00;;;1.90;;
6642;SDS011;3357;48.050;7.800;2023-05-07T13:57:12;4.60;;;2.17;;
6642;SDS011;3357;48.050;7.800;2023-05-07T13:59:37;2.40;;;0.90;;
6642;SDS011;3357;48.050;7.800;2023-05-07T14:02:02;0.80;;;0.80;;
6642;SDS011;3357;48.050;7.800;2023-05-07T14:04:27;0.80;;;0.80;;
6642;SDS011;3357;48.050;7.800;2023-05-07T14:06:53;0.90;;;0.90;;
6642;SDS011;3357;48.050;7.800;2023-05-07T14:09:18;2.30;;;0.90;;
6642;SDS011;3357;48.050;7.800;2023-05-07T14:11:43;2.83;;;1.00;;
6642;SDS011;3357;48.050;7.800;2023-05-07T14:14:09;1.10;;;1.00;;
6642;SDS011;3357;48.050;7.800;2023-05-07T14:16:37;1.00;;;1.00;;
6642;SDS011;3357;48.050;7.800;2023-05-07T14:19:02;2.83;;;0.90;;
6642;SDS011;3357;48.050;7.800;2023-05-07T14:21:28;1.00;;;1.00;;
6642;SDS011;3357;48.050;7.800;2023-05-07T14:23:53;1.10;;;1.10;;
6642;SDS011;3357;48.050;7.800;2023-05-07T14:26:18;3.43;;;1.37;;
6642;SDS011;3357;48.050;7.800;2023-05-07T14:28:44;1.20;;;1.20;;
6642;SDS011;3357;48.050;7.800;2023-05-07T14:31:11;2.87;;;1.70;;
6642;SDS011;3357;48.050;7.800;2023-05-07T14:33:37;1.20;;;1.20;;
6642;SDS011;3357;48.050;7.800;2023-05-07T14:36:02;1.90;;;1.30;;
6642;SDS011;3357;48.050;7.800;2023-05-07T14:38:28;2.20;;;1.40;;
6642;SDS011;3357;48.050;7.800;2023-05-07T14:40:53;1.30;;;1.17;;
6642;SDS011;3357;48.050;7.800;2023-05-07T14:43:20;4.30;;;1.13;;
6642;SDS011;3357;48.050;7.800;2023-05-07T14:45:45;2.17;;;1.90;;
6642;SDS011;3357;48.050;7.800;2023-05-07T14:48:11;1.60;;;1.50;;
6642;SDS011;3357;48.050;7.800;2023-05-07T14:50:39;2.07;;;1.63;;
6642;SDS011;3357;48.050;7.800;2023-05-07T14:53:05;2.10;;;2.00;;
6642;SDS011;3357;48.050;7.800;2023-05-07T14:55:31;2.57;;;2.37;;
6642;SDS011;3357;48.050;7.800;2023-05-07T14:57:56;2.07;;;1.97;;
6642;SDS011;3357;48.050;7.800;2023-05-07T15:00:21;2.77;;;1.40;;
6642;SDS011;3357;48.050;7.800;2023-05-07T15:02:46;2.27;;;2.17;;
6642;SDS011;3357;48.050;7.800;2023-05-07T15:05:12;3.70;;;1.87;;
6642;SDS011;3357;48.050;7.800;2023-05-07T15:07:39;4.23;;;2.20;;
6642;SDS011;3357;48.050;7.800;2023-05-07T15:10:04;7.77;;;5.57;;
6642;SDS011;3357;48.050;7.800;2023-05-07T15:12:30;4.27;;;2.50;;
6642;SDS011;3357;48.050;7.800;2023-05-07T15:14:55;1.77;;;1.67;;
6642;SDS011;3357;48.050;7.800;2023-05-07T15:17:21;1.80;;;1.70;;
6642;SDS011;3357;48.050;7.800;2023-05-07T15:19:46;2.23;;;2.00;;
6642;SDS011;3357;48.050;7.800;2023-05-07T15:22:11;2.10;;;1.27;;
6642;SDS011;3357;48.050;7.800;2023-05-07T15:24:36;1.60;;;1.50;;
6642;SDS011;3357;48.050;7.800;2023-05-07T15:27:02;5.60;;;1.50;;
6642;SDS011;3357;48.050;7.800;2023-05-07T15:29:28;1.77;;;1.33;;